Jasper, Arkansas
Current Conditions -  °F | °C
As of 5:36 AM on Tuesday 21 Oct 2014 (Local Time) from KHRO Reporting Station
Moderate Fog Moderate Fog  
Wind Chill: 52°   Ceiling: Unl
Heat Index: 52°   Visibility: 0.5mi
Dew Point: 52°   Wind: 5mph
Humidity: 100%   Direction: 260°W
Pressure: 30.1"   Gusts: NA
Location:  36.01°N, 93.19°W
Report Text: KHRO 211036Z AUTO 26004KT 1/2SM FG CLR 11/11 A3010 RMK AO2 T01110111
Loading
Personal Weather Stations






























Interactive Weather Map
Tropical Storm Tracking
New forecast layout! Learn more

10-Day Weather Forecast

Advertisements
Track Severe Weather on mobile